Adel, OR

2:26 PM PDT on August 27, 2014 (GMT -0700)
RAWS CATNIP MOUNTAIN NV US | Change Station
CLOSE
Current Station
Personal Weather Station
Location: Adel, OR
Elevation: 5750 ft
Nearby Weather Stations

Elev 5750 ft 41.92 °N, 119.50 °W | Updated 59 minutes ago

Clear
Clear
82 °F
Feels Like 80 °F
N
7
Wind Variable Wind from WNW
Gusts 14.0 mph

Today
High -- | Low -- °F
--% Chance of Precip.
Yesterday
High -- | Low -- °F
Precip. -- in
6:19 AM 7:40 PM
Waxing Crescent, 5% visible
Pressure 30.23 in
Visibility 10.0 miles
Clouds Clear
Heat Index 80 °F
Dew Point 33 °F
Humidity 17%
Rainfall 0.00 in
Snow Depth Not available.
UV 10 out of 12
Pollen 5.90 out of 12
Air Quality Not available.
Flu Activity Not available.
METAR KLKV 271955Z AUTO 18008KT 10SM CLR 29/02 A3023 RMK AO1

More Conditions Fewer Conditions

Pressure 30.23 in
Visibility 10.0 miles
Clouds Clear
Heat Index 80 °F
Dew Point 33 °F
Humidity 17%
Rainfall 0.00 in
Snow Depth Not available.
UV 10 out of 12
Pollen 5.90 out of 12
Air Quality Not available.
Flu Activity Not available.
METAR KLKV 271955Z AUTO 18008KT 10SM CLR 29/02 A3023 RMK AO1

More Conditions Fewer Conditions

10-Day Weather Forecast

Almanac

Astronomy

Aug. 27, 2014 Rise Set
Actual Time 6:19 AM PDT 7:40 PM PDT
Civil Twilight 5:49 AM PDT 8:09 PM PDT
Nautical Twilight 5:14 AM PDT 8:44 PM PDT
Astronomical Twilight 4:37 AM PDT 9:21 PM PDT
Moon 8:22 AM PDT 8:32 PM PDT
Length of Visible Light 14h 19m
Length of Day
13h 21m
Tomorrow will be 2m 41s shorter.
Waxing Crescent, 5% of the Moon is Illuminated
Today
Waxing Crescent
Sep 2
First Quarter
Sep 8
Full
Sep 15
Last Quarter
Sep 24
New

Today's Extremes

State Highs State Lows

Community

WunderPhotos

Upload Photos

1,747,791 photos uploaded!

Nearby

Snow Depth

Station Depth Elevation
Fish Creek 0 in 7900 ft
Strawberry 1 in 5760 ft
Sevenmile Marsh 0 in 6200 ft
Fourmile Lake 1 in 6000 ft
Fish Lake 0 in 4665 ft

Earthquake Activity

City Distance Mag. Time & Date
Lakeview, Oregon 21 miles 3.1 10:04 AM PDT
2014-08-26
Minimum magnitude displayed is 2.5.

Coastal Water Temperatures

Place Temperature
No Stations Reporting

Nearby Weather Stations